70.7°F
Current conditions from King Hill
Updated every 5 minutes
 
  Wednesday July 23, 2014

Station Historical Data
Daily Summary for November 8, 2011 Units:  Both    English   Metric
« Previous Day
Next Day »
Daily Weekly Monthly Yearly Custom
  High: Low: Average:
Temperature: 63.1 °F /  17.3 °C 43.9 °F /  6.6 °C 52.6 °F /  11.4 °C
Dew Point: 45.6 °F /  7.6 °C 36.5 °F /  2.5 °C 42.1 °F /  5.6 °C
Humidity: 88% 41% 69%
Wind Speed: 6.0mph /  9.7km/h - 2.3mph /  3.7km/h
Wind Gust: 11.0mph /  17.7km/h - -
Wind- - WSW
Pressure: 30.22 in /  1023.2 hPa 30.14 in /  1020.5 hPa -
Precipitation: 0.00 in /  0 mm    
Historical Graphs
 
 
Tabular Data for November 8, 2011
Time Temperature Dew Point Pressure Wind Wind Speed Wind Gust Humidity Daily Rainfall
00:00 46.3 °F /  7.9 °C 39.8 °F /  4.3 °C 30.16in /  1021.2hPa SSW 4.0mph /  6.4km/h 8.0mph /  12.9km/h 78% 0.00in /  0mm
00:05 47.0 °F /  8.3 °C 40.5 °F /  4.7 °C 30.16in /  1021.2hPa SW 3.0mph /  4.8km/h 8.0mph /  12.9km/h 78% 0.00in /  0mm
00:10 47.3 °F /  8.5 °C 41.1 °F /  5.1 °C 30.16in /  1021.2hPa SW 5.0mph /  8km/h 8.0mph /  12.9km/h 79% 0.00in /  0mm
00:15 48.2 °F /  9 °C 42.0 °F /  5.6 °C 30.16in /  1021.2hPa SW 5.0mph /  8km/h 9.0mph /  14.5km/h 79% 0.00in /  0mm
00:20 49.6 °F /  9.8 °C 42.7 °F /  5.9 °C 30.16in /  1021.2hPa WSW 3.0mph /  4.8km/h 11.0mph /  17.7km/h 77% 0.00in /  0mm
00:25 49.6 °F /  9.8 °C 42.0 °F /  5.6 °C 30.16in /  1021.2hPa SW 4.0mph /  6.4km/h 11.0mph /  17.7km/h 75% 0.00in /  0mm
00:30 49.4 °F /  9.7 °C 42.2 °F /  5.7 °C 30.16in /  1021.2hPa SW 5.0mph /  8km/h 10.0mph /  16.1km/h 76% 0.00in /  0mm
00:35 49.6 °F /  9.8 °C 42.0 °F /  5.6 °C 30.16in /  1021.2hPa WSW 3.0mph /  4.8km/h 10.0mph /  16.1km/h 75% 0.00in /  0mm
00:40 49.6 °F /  9.8 °C 42.0 °F /  5.6 °C 30.16in /  1021.2hPa WSW 3.0mph /  4.8km/h 7.0mph /  11.3km/h 75% 0.00in /  0mm
00:45 49.6 °F /  9.8 °C 42.0 °F /  5.6 °C 30.16in /  1021.2hPa WSW 3.0mph /  4.8km/h 8.0mph /  12.9km/h 75% 0.00in /  0mm
00:50 49.5 °F /  9.7 °C 41.9 °F /  5.5 °C 30.16in /  1021.2hPa SW 3.0mph /  4.8km/h 8.0mph /  12.9km/h 75% 0.00in /  0mm
00:55 49.0 °F /  9.4 °C 41.4 °F /  5.2 °C 30.16in /  1021.2hPa Calm   7.0mph /  11.3km/h 75% 0.00in /  0mm
01:00 48.2 °F /  9 °C 41.3 °F /  5.2 °C 30.16in /  1021.2hPa Calm   8.0mph /  12.9km/h 77% 0.00in /  0mm
01:05 48.5 °F /  9.2 °C 42.0 °F /  5.6 °C 30.16in /  1021.2hPa WSW 5.0mph /  8km/h 10.0mph /  16.1km/h 78% 0.00in /  0mm
01:10 48.8 °F /  9.3 °C 41.9 °F /  5.5 °C 30.16in /  1021.2hPa WSW 2.0mph /  3.2km/h 11.0mph /  17.7km/h 77% 0.00in /  0mm
01:15 48.8 °F /  9.3 °C 41.9 °F /  5.5 °C 30.16in /  1021.2hPa WSW 3.0mph /  4.8km/h 11.0mph /  17.7km/h 77% 0.00in /  0mm
01:20 48.8 °F /  9.3 °C 41.9 °F /  5.5 °C 30.17in /  1021.6hPa West 3.0mph /  4.8km/h 9.0mph /  14.5km/h 77% 0.00in /  0mm
01:25 48.8 °F /  9.3 °C 41.9 °F /  5.5 °C 30.16in /  1021.2hPa WSW 3.0mph /  4.8km/h 9.0mph /  14.5km/h 77% 0.00in /  0mm
01:30 49.0 °F /  9.4 °C 42.1 °F /  5.6 °C 30.17in /  1021.6hPa WSW 5.0mph /  8km/h 9.0mph /  14.5km/h 77% 0.00in /  0mm
01:35 49.2 °F /  9.6 °C 42.3 °F /  5.7 °C 30.17in /  1021.6hPa WSW 3.0mph /  4.8km/h 9.0mph /  14.5km/h 77% 0.00in /  0mm
01:40 49.2 °F /  9.6 °C 42.3 °F /  5.7 °C 30.17in /  1021.6hPa West 1.0mph /  1.6km/h 7.0mph /  11.3km/h 77% 0.00in /  0mm
01:45 49.0 °F /  9.4 °C 42.1 °F /  5.6 °C 30.17in /  1021.6hPa WSW 2.0mph /  3.2km/h 8.0mph /  12.9km/h 77% 0.00in /  0mm
01:55 48.3 °F /  9.1 °C 41.8 °F /  5.4 °C 30.17in /  1021.6hPa WSW 1.0mph /  1.6km/h 8.0mph /  12.9km/h 78% 0.00in /  0mm
02:00 48.1 °F /  8.9 °C 41.6 °F /  5.3 °C 30.17in /  1021.6hPa WSW 1.0mph /  1.6km/h 8.0mph /  12.9km/h 78% 0.00in /  0mm
02:05 47.9 °F /  8.8 °C 41.7 °F /  5.4 °C 30.17in /  1021.6hPa Calm   6.0mph /  9.7km/h 79% 0.00in /  0mm
02:10 47.8 °F /  8.8 °C 41.6 °F /  5.3 °C 30.17in /  1021.6hPa SW 2.0mph /  3.2km/h 6.0mph /  9.7km/h 79% 0.00in /  0mm
02:15 47.5 °F /  8.6 °C 41.3 °F /  5.2 °C 30.17in /  1021.6hPa WSW 1.0mph /  1.6km/h 6.0mph /  9.7km/h 79% 0.00in /  0mm
02:20 47.4 °F /  8.6 °C 41.5 °F /  5.3 °C 30.17in /  1021.6hPa WSW 2.0mph /  3.2km/h 6.0mph /  9.7km/h 80% 0.00in /  0mm
02:25 47.5 °F /  8.6 °C 42.0 °F /  5.6 °C 30.18in /  1021.9hPa WSW 3.0mph /  4.8km/h 6.0mph /  9.7km/h 81% 0.00in /  0mm
02:30 47.7 °F /  8.7 °C 42.2 °F /  5.7 °C 30.18in /  1021.9hPa WSW 2.0mph /  3.2km/h 6.0mph /  9.7km/h 81% 0.00in /  0mm
02:35 47.8 °F /  8.8 °C 42.3 °F /  5.7 °C 30.18in /  1021.9hPa WSW 1.0mph /  1.6km/h 7.0mph /  11.3km/h 81% 0.00in /  0mm
02:40 47.7 °F /  8.7 °C 41.8 °F /  5.4 °C 30.18in /  1021.9hPa Calm   7.0mph /  11.3km/h 80% 0.00in /  0mm
02:45 47.8 °F /  8.8 °C 42.3 °F /  5.7 °C 30.18in /  1021.9hPa WSW 1.0mph /  1.6km/h 7.0mph /  11.3km/h 81% 0.00in /  0mm
02:50 47.8 °F /  8.8 °C 42.3 °F /  5.7 °C 30.18in /  1021.9hPa Calm   7.0mph /  11.3km/h 81% 0.00in /  0mm
02:55 47.6 °F /  8.7 °C 42.1 °F /  5.6 °C 30.18in /  1021.9hPa Calm   6.0mph /  9.7km/h 81% 0.00in /  0mm
03:00 47.8 °F /  8.8 °C 42.6 °F /  5.9 °C 30.18in /  1021.9hPa WSW 3.0mph /  4.8km/h 7.0mph /  11.3km/h 82% 0.00in /  0mm
03:05 48.1 °F /  8.9 °C 42.6 °F /  5.9 °C 30.18in /  1021.9hPa Calm   7.0mph /  11.3km/h 81% 0.00in /  0mm
03:10 48.0 °F /  8.9 °C 42.5 °F /  5.8 °C 30.18in /  1021.9hPa SW 3.0mph /  4.8km/h 6.0mph /  9.7km/h 81% 0.00in /  0mm
03:20 47.8 °F /  8.8 °C 42.3 °F /  5.7 °C 30.18in /  1021.9hPa SW 1.0mph /  1.6km/h 7.0mph /  11.3km/h 81% 0.00in /  0mm
03:25 47.8 °F /  8.8 °C 42.3 °F /  5.7 °C 30.18in /  1021.9hPa Calm   7.0mph /  11.3km/h 81% 0.00in /  0mm
03:30 47.7 °F /  8.7 °C 42.2 °F /  5.7 °C 30.18in /  1021.9hPa Calm   4.0mph /  6.4km/h 81% 0.00in /  0mm
03:35 47.6 °F /  8.7 °C 42.4 °F /  5.8 °C 30.18in /  1021.9hPa Calm   3.0mph /  4.8km/h 82% 0.00in /  0mm
03:40 47.5 °F /  8.6 °C 42.3 °F /  5.7 °C 30.18in /  1021.9hPa SW 2.0mph /  3.2km/h 4.0mph /  6.4km/h 82% 0.00in /  0mm
03:45 47.3 °F /  8.5 °C 42.1 °F /  5.6 °C 30.18in /  1021.9hPa Calm   4.0mph /  6.4km/h 82% 0.00in /  0mm
03:55 47.0 °F /  8.3 °C 41.8 °F /  5.4 °C 30.18in /  1021.9hPa Calm   1.0mph /  1.6km/h 82% 0.00in /  0mm
04:00 46.9 °F /  8.3 °C 42.0 °F /  5.6 °C 30.18in /  1021.9hPa Calm   2.0mph /  3.2km/h 83% 0.00in /  0mm
04:05 46.6 °F /  8.1 °C 41.7 °F /  5.4 °C 30.18in /  1021.9hPa SW 1.0mph /  1.6km/h 3.0mph /  4.8km/h 83% 0.00in /  0mm
04:15 46.0 °F /  7.8 °C 41.1 °F /  5.1 °C 30.18in /  1021.9hPa SSW 1.0mph /  1.6km/h 5.0mph /  8km/h 83% 0.00in /  0mm
04:20 45.7 °F /  7.6 °C 40.8 °F /  4.9 °C 30.18in /  1021.9hPa Calm   4.0mph /  6.4km/h 83% 0.00in /  0mm
04:25 45.7 °F /  7.6 °C 41.1 °F /  5.1 °C 30.18in /  1021.9hPa SSW 1.0mph /  1.6km/h 4.0mph /  6.4km/h 84% 0.00in /  0mm
04:30 45.8 °F /  7.7 °C 41.6 °F /  5.3 °C 30.18in /  1021.9hPa Calm   4.0mph /  6.4km/h 85% 0.00in /  0mm
04:35 45.8 °F /  7.7 °C 41.6 °F /  5.3 °C 30.18in /  1021.9hPa Calm   4.0mph /  6.4km/h 85% 0.00in /  0mm
04:40 46.0 °F /  7.8 °C 42.1 °F /  5.6 °C 30.18in /  1021.9hPa SSW 1.0mph /  1.6km/h 3.0mph /  4.8km/h 86% 0.00in /  0mm
04:45 46.1 °F /  7.8 °C 41.8 °F /  5.4 °C 30.18in /  1021.9hPa SSW 3.0mph /  4.8km/h 5.0mph /  8km/h 85% 0.00in /  0mm
04:50 46.2 °F /  7.9 °C 41.9 °F /  5.5 °C 30.19in /  1022.2hPa SSW 1.0mph /  1.6km/h 5.0mph /  8km/h 85% 0.00in /  0mm
04:55 46.1 °F /  7.8 °C 41.8 °F /  5.4 °C 30.19in /  1022.2hPa Calm   5.0mph /  8km/h 85% 0.00in /  0mm
05:00 46.0 °F /  7.8 °C 41.7 °F /  5.4 °C 30.19in /  1022.2hPa SSW 2.0mph /  3.2km/h 4.0mph /  6.4km/h 85% 0.00in /  0mm
05:05 46.2 °F /  7.9 °C 41.9 °F /  5.5 °C 30.18in /  1021.9hPa SSW 2.0mph /  3.2km/h 6.0mph /  9.7km/h 85% 0.00in /  0mm
05:15 46.6 °F /  8.1 °C 42.3 °F /  5.7 °C 30.18in /  1021.9hPa SSW 2.0mph /  3.2km/h 5.0mph /  8km/h 85% 0.00in /  0mm
05:20 46.6 °F /  8.1 °C 42.3 °F /  5.7 °C 30.18in /  1021.9hPa SSW 2.0mph /  3.2km/h 5.0mph /  8km/h 85% 0.00in /  0mm
05:25 46.7 °F /  8.2 °C 42.4 °F /  5.8 °C 30.18in /  1021.9hPa Calm   5.0mph /  8km/h 85% 0.00in /  0mm
05:30 46.5 °F /  8.1 °C 42.2 °F /  5.7 °C 30.18in /  1021.9hPa SSW 1.0mph /  1.6km/h 5.0mph /  8km/h 85% 0.00in /  0mm
05:35 46.3 °F /  7.9 °C 42.0 °F /  5.6 °C 30.18in /  1021.9hPa SSW 1.0mph /  1.6km/h 5.0mph /  8km/h 85% 0.00in /  0mm
05:45 46.4 °F /  8 °C 42.1 °F /  5.6 °C 30.18in /  1021.9hPa SSW 1.0mph /  1.6km/h 5.0mph /  8km/h 85% 0.00in /  0mm
05:50 46.5 °F /  8.1 °C 42.5 °F /  5.8 °C 30.18in /  1021.9hPa SSW 1.0mph /  1.6km/h 4.0mph /  6.4km/h 86% 0.00in /  0mm
05:55 46.4 °F /  8 °C 42.1 °F /  5.6 °C 30.18in /  1021.9hPa SSW 1.0mph /  1.6km/h 5.0mph /  8km/h 85% 0.00in /  0mm
06:00 46.0 °F /  7.8 °C 41.7 °F /  5.4 °C 30.18in /  1021.9hPa SSW 2.0mph /  3.2km/h 5.0mph /  8km/h 85% 0.00in /  0mm
06:05 45.8 °F /  7.7 °C 41.9 °F /  5.5 °C 30.18in /  1021.9hPa SSW 3.0mph /  4.8km/h 4.0mph /  6.4km/h 86% 0.00in /  0mm
06:10 45.8 °F /  7.7 °C 41.9 °F /  5.5 °C 30.18in /  1021.9hPa Calm   4.0mph /  6.4km/h 86% 0.00in /  0mm
06:15 45.0 °F /  7.2 °C 40.8 °F /  4.9 °C 30.18in /  1021.9hPa SSW 1.0mph /  1.6km/h 4.0mph /  6.4km/h 85% 0.00in /  0mm
06:20 44.8 °F /  7.1 °C 40.9 °F /  4.9 °C 30.18in /  1021.9hPa SSW 2.0mph /  3.2km/h 4.0mph /  6.4km/h 86% 0.00in /  0mm
06:25 44.7 °F /  7.1 °C 40.8 °F /  4.9 °C 30.19in /  1022.2hPa Calm   4.0mph /  6.4km/h 86% 0.00in /  0mm
06:30 44.6 °F /  7 °C 40.7 °F /  4.8 °C 30.18in /  1021.9hPa Calm   4.0mph /  6.4km/h 86% 0.00in /  0mm
06:40 44.1 °F /  6.7 °C 40.5 °F /  4.7 °C 30.19in /  1022.2hPa Calm   4.0mph /  6.4km/h 87% 0.00in /  0mm
06:45 43.9 °F /  6.6 °C 40.3 °F /  4.6 °C 30.19in /  1022.2hPa SSW 3.0mph /  4.8km/h 6.0mph /  9.7km/h 87% 0.00in /  0mm
06:50 44.4 °F /  6.9 °C 41.1 °F /  5.1 °C 30.19in /  1022.2hPa SSW 1.0mph /  1.6km/h 6.0mph /  9.7km/h 88% 0.00in /  0mm
06:55 44.5 °F /  6.9 °C 41.2 °F /  5.1 °C 30.19in /  1022.2hPa SSW 2.0mph /  3.2km/h 5.0mph /  8km/h 88% 0.00in /  0mm
07:00 44.5 °F /  6.9 °C 41.2 °F /  5.1 °C 30.19in /  1022.2hPa SSW 1.0mph /  1.6km/h 5.0mph /  8km/h 88% 0.00in /  0mm
07:05 44.8 °F /  7.1 °C 41.2 °F /  5.1 °C 30.20in /  1022.6hPa SSW 1.0mph /  1.6km/h 5.0mph /  8km/h 87% 0.00in /  0mm
07:10 44.8 °F /  7.1 °C 41.2 °F /  5.1 °C 30.20in /  1022.6hPa Calm   5.0mph /  8km/h 87% 0.00in /  0mm
07:15 44.7 °F /  7.1 °C 41.1 °F /  5.1 °C 30.20in /  1022.6hPa Calm   3.0mph /  4.8km/h 87% 0.00in /  0mm
07:20 44.1 °F /  6.7 °C 40.2 °F /  4.6 °C 30.20in /  1022.6hPa Calm   3.0mph /  4.8km/h 86% 0.00in /  0mm
07:25 44.0 °F /  6.7 °C 40.1 °F /  4.5 °C 30.20in /  1022.6hPa SW 1.0mph /  1.6km/h 4.0mph /  6.4km/h 86% 0.00in /  0mm
07:30 44.1 °F /  6.7 °C 40.2 °F /  4.6 °C 30.20in /  1022.6hPa WSW 1.0mph /  1.6km/h 4.0mph /  6.4km/h 86% 0.00in /  0mm
07:35 44.3 °F /  6.8 °C 40.4 °F /  4.7 °C 30.21in /  1022.9hPa WSW 1.0mph /  1.6km/h 4.0mph /  6.4km/h 86% 0.00in /  0mm
07:40 44.5 °F /  6.9 °C 40.6 °F /  4.8 °C 30.21in /  1022.9hPa Calm   5.0mph /  8km/h 86% 0.00in /  0mm
07:45 45.0 °F /  7.2 °C 41.1 °F /  5.1 °C 30.21in /  1022.9hPa West 1.0mph /  1.6km/h 6.0mph /  9.7km/h 86% 0.00in /  0mm
07:50 45.9 °F /  7.7 °C 41.6 °F /  5.3 °C 30.21in /  1022.9hPa West 1.0mph /  1.6km/h 7.0mph /  11.3km/h 85% 0.00in /  0mm
07:55 46.6 °F /  8.1 °C 41.7 °F /  5.4 °C 30.21in /  1022.9hPa Calm   7.0mph /  11.3km/h 83% 0.00in /  0mm
08:00 47.5 °F /  8.6 °C 42.0 °F /  5.6 °C 30.21in /  1022.9hPa WSW 3.0mph /  4.8km/h 7.0mph /  11.3km/h 81% 0.00in /  0mm
08:05 48.4 °F /  9.1 °C 42.2 °F /  5.7 °C 30.21in /  1022.9hPa West 3.0mph /  4.8km/h 9.0mph /  14.5km/h 79% 0.00in /  0mm
08:10 48.8 °F /  9.3 °C 42.6 °F /  5.9 °C 30.21in /  1022.9hPa West 1.0mph /  1.6km/h 9.0mph /  14.5km/h 79% 0.00in /  0mm
08:15 49.1 °F /  9.5 °C 42.5 °F /  5.8 °C 30.21in /  1022.9hPa West 1.0mph /  1.6km/h 6.0mph /  9.7km/h 78% 0.00in /  0mm
08:20 49.4 °F /  9.7 °C 42.5 °F /  5.8 °C 30.21in /  1022.9hPa West 1.0mph /  1.6km/h 7.0mph /  11.3km/h 77% 0.00in /  0mm
08:25 50.1 °F /  10.1 °C 42.5 °F /  5.8 °C 30.21in /  1022.9hPa WSW 3.0mph /  4.8km/h 9.0mph /  14.5km/h 75% 0.00in /  0mm
08:30 50.7 °F /  10.4 °C 42.7 °F /  5.9 °C 30.22in /  1023.2hPa West 4.0mph /  6.4km/h 9.0mph /  14.5km/h 74% 0.00in /  0mm
08:35 51.2 °F /  10.7 °C 42.5 °F /  5.8 °C 30.22in /  1023.2hPa WNW 3.0mph /  4.8km/h 9.0mph /  14.5km/h 72% 0.00in /  0mm
08:40 52.1 °F /  11.2 °C 43.4 °F /  6.3 °C 30.22in /  1023.2hPa Calm   9.0mph /  14.5km/h 72% 0.00in /  0mm
08:45 52.6 °F /  11.4 °C 42.7 °F /  5.9 °C 30.22in /  1023.2hPa SW 1.0mph /  1.6km/h 8.0mph /  12.9km/h 69% 0.00in /  0mm
08:55 53.2 °F /  11.8 °C 43.3 °F /  6.3 °C 30.21in /  1022.9hPa Calm   7.0mph /  11.3km/h 69% 0.00in /  0mm
09:00 53.5 °F /  11.9 °C 43.6 °F /  6.4 °C 30.21in /  1022.9hPa SSW 1.0mph /  1.6km/h 5.0mph /  8km/h 69% 0.00in /  0mm
09:05 53.7 °F /  12.1 °C 43.4 °F /  6.3 °C 30.21in /  1022.9hPa SSW 2.0mph /  3.2km/h 6.0mph /  9.7km/h 68% 0.00in /  0mm
09:10 54.1 °F /  12.3 °C 43.0 °F /  6.1 °C 30.21in /  1022.9hPa SSW 4.0mph /  6.4km/h 7.0mph /  11.3km/h 66% 0.00in /  0mm
09:15 54.2 °F /  12.3 °C 43.5 °F /  6.4 °C 30.21in /  1022.9hPa SSW 3.0mph /  4.8km/h 7.0mph /  11.3km/h 67% 0.00in /  0mm
09:20 54.6 °F /  12.6 °C 43.5 °F /  6.4 °C 30.21in /  1022.9hPa SW 3.0mph /  4.8km/h 8.0mph /  12.9km/h 66% 0.00in /  0mm
09:30 55.4 °F /  13 °C 43.8 °F /  6.6 °C 30.21in /  1022.9hPa SSW 1.0mph /  1.6km/h 7.0mph /  11.3km/h 65% 0.00in /  0mm
09:35 55.4 °F /  13 °C 43.0 °F /  6.1 °C 30.21in /  1022.9hPa SW 1.0mph /  1.6km/h 5.0mph /  8km/h 63% 0.00in /  0mm
09:40 55.6 °F /  13.1 °C 42.8 °F /  6 °C 30.20in /  1022.6hPa WSW 2.0mph /  3.2km/h 5.0mph /  8km/h 62% 0.00in /  0mm
09:45 55.7 °F /  13.2 °C 40.3 °F /  4.6 °C 30.20in /  1022.6hPa WSW 3.0mph /  4.8km/h 8.0mph /  12.9km/h 56% 0.00in /  0mm
09:50 55.7 °F /  13.2 °C 40.3 °F /  4.6 °C 30.21in /  1022.9hPa SW 3.0mph /  4.8km/h 8.0mph /  12.9km/h 56% 0.00in /  0mm
09:55 56.0 °F /  13.3 °C 40.1 °F /  4.5 °C 30.20in /  1022.6hPa West 2.0mph /  3.2km/h 8.0mph /  12.9km/h 55% 0.00in /  0mm
10:00 56.5 °F /  13.6 °C 37.6 °F /  3.1 °C 30.20in /  1022.6hPa WNW 4.0mph /  6.4km/h 8.0mph /  12.9km/h 49% 0.00in /  0mm
10:05 56.7 °F /  13.7 °C 37.2 °F /  2.9 °C 30.20in /  1022.6hPa WSW 3.0mph /  4.8km/h 8.0mph /  12.9km/h 48% 0.00in /  0mm
10:10 56.8 °F /  13.8 °C 37.3 °F /  2.9 °C 30.20in /  1022.6hPa West 1.0mph /  1.6km/h 8.0mph /  12.9km/h 48% 0.00in /  0mm
10:15 57.3 °F /  14.1 °C 37.8 °F /  3.2 °C 30.20in /  1022.6hPa West 5.0mph /  8km/h 7.0mph /  11.3km/h 48% 0.00in /  0mm
10:20 57.5 °F /  14.2 °C 38.5 °F /  3.6 °C 30.20in /  1022.6hPa West 5.0mph /  8km/h 10.0mph /  16.1km/h 49% 0.00in /  0mm
10:25 57.6 °F /  14.2 °C 38.6 °F /  3.7 °C 30.20in /  1022.6hPa West 3.0mph /  4.8km/h 10.0mph /  16.1km/h 49% 0.00in /  0mm
10:30 58.0 °F /  14.4 °C 39.5 °F /  4.2 °C 30.20in /  1022.6hPa WSW 2.0mph /  3.2km/h 9.0mph /  14.5km/h 50% 0.00in /  0mm
10:35 58.4 °F /  14.7 °C 38.8 °F /  3.8 °C 30.20in /  1022.6hPa WNW 3.0mph /  4.8km/h 7.0mph /  11.3km/h 48% 0.00in /  0mm
10:40 58.5 °F /  14.7 °C 38.4 °F /  3.6 °C 30.20in /  1022.6hPa West 2.0mph /  3.2km/h 8.0mph /  12.9km/h 47% 0.00in /  0mm
10:45 59.0 °F /  15 °C 38.3 °F /  3.5 °C 30.20in /  1022.6hPa West 2.0mph /  3.2km/h 8.0mph /  12.9km/h 46% 0.00in /  0mm
10:50 59.1 °F /  15.1 °C 36.6 °F /  2.6 °C 30.20in /  1022.6hPa WNW 5.0mph /  8km/h 10.0mph /  16.1km/h 43% 0.00in /  0mm
10:55 59.1 °F /  15.1 °C 37.8 °F /  3.2 °C 30.19in /  1022.2hPa SSW 1.0mph /  1.6km/h 10.0mph /  16.1km/h 45% 0.00in /  0mm
11:00 59.0 °F /  15 °C 37.1 °F /  2.8 °C 30.19in /  1022.2hPa SW 2.0mph /  3.2km/h 6.0mph /  9.7km/h 44% 0.00in /  0mm
11:05 59.0 °F /  15 °C 37.1 °F /  2.8 °C 30.19in /  1022.2hPa West 4.0mph /  6.4km/h 8.0mph /  12.9km/h 44% 0.00in /  0mm
11:10 59.0 °F /  15 °C 37.7 °F /  3.2 °C 30.19in /  1022.2hPa West 5.0mph /  8km/h 9.0mph /  14.5km/h 45% 0.00in /  0mm
11:15 59.3 °F /  15.2 °C 38.5 °F /  3.6 °C 30.19in /  1022.2hPa WSW 4.0mph /  6.4km/h 9.0mph /  14.5km/h 46% 0.00in /  0mm
11:20 59.0 °F /  15 °C 36.5 °F /  2.5 °C 30.19in /  1022.2hPa SW 5.0mph /  8km/h 11.0mph /  17.7km/h 43% 0.00in /  0mm
11:25 59.0 °F /  15 °C 36.5 °F /  2.5 °C 30.19in /  1022.2hPa SW 5.0mph /  8km/h 11.0mph /  17.7km/h 43% 0.00in /  0mm
11:30 59.5 °F /  15.3 °C 38.2 °F /  3.4 °C 30.19in /  1022.2hPa SW 2.0mph /  3.2km/h 9.0mph /  14.5km/h 45% 0.00in /  0mm
11:35 59.8 °F /  15.4 °C 37.9 °F /  3.3 °C 30.19in /  1022.2hPa SW 5.0mph /  8km/h 8.0mph /  12.9km/h 44% 0.00in /  0mm
11:40 60.0 °F /  15.6 °C 38.6 °F /  3.7 °C 30.19in /  1022.2hPa WNW 1.0mph /  1.6km/h 8.0mph /  12.9km/h 45% 0.00in /  0mm
11:45 60.2 °F /  15.7 °C 37.6 °F /  3.1 °C 30.18in /  1021.9hPa WNW 3.0mph /  4.8km/h 9.0mph /  14.5km/h 43% 0.00in /  0mm
11:50 60.4 °F /  15.8 °C 38.4 °F /  3.6 °C 30.18in /  1021.9hPa SW 4.0mph /  6.4km/h 9.0mph /  14.5km/h 44% 0.00in /  0mm
11:55 60.5 °F /  15.8 °C 38.5 °F /  3.6 °C 30.18in /  1021.9hPa West 2.0mph /  3.2km/h 8.0mph /  12.9km/h 44% 0.00in /  0mm
12:00 60.6 °F /  15.9 °C 38.6 °F /  3.7 °C 30.18in /  1021.9hPa WNW 2.0mph /  3.2km/h 8.0mph /  12.9km/h 44% 0.00in /  0mm
12:05 60.7 °F /  15.9 °C 39.2 °F /  4 °C 30.18in /  1021.9hPa WSW 2.0mph /  3.2km/h 9.0mph /  14.5km/h 45% 0.00in /  0mm
12:10 60.8 °F /  16 °C 38.2 °F /  3.4 °C 30.18in /  1021.9hPa SW 4.0mph /  6.4km/h 9.0mph /  14.5km/h 43% 0.00in /  0mm
12:15 60.7 °F /  15.9 °C 37.5 °F /  3.1 °C 30.17in /  1021.6hPa WSW 6.0mph /  9.7km/h 10.0mph /  16.1km/h 42% 0.00in /  0mm
12:20 60.9 °F /  16.1 °C 37.7 °F /  3.2 °C 30.17in /  1021.6hPa West 3.0mph /  4.8km/h 10.0mph /  16.1km/h 42% 0.00in /  0mm
12:25 60.9 °F /  16.1 °C 37.7 °F /  3.2 °C 30.17in /  1021.6hPa West 4.0mph /  6.4km/h 8.0mph /  12.9km/h 42% 0.00in /  0mm
12:30 61.3 °F /  16.3 °C 38.0 °F /  3.3 °C 30.17in /  1021.6hPa WSW 2.0mph /  3.2km/h 8.0mph /  12.9km/h 42% 0.00in /  0mm
12:35 61.6 °F /  16.4 °C 37.7 °F /  3.2 °C 30.17in /  1021.6hPa SSW 2.0mph /  3.2km/h 7.0mph /  11.3km/h 41% 0.00in /  0mm
12:40 61.3 °F /  16.3 °C 38.0 °F /  3.3 °C 30.17in /  1021.6hPa SSW 1.0mph /  1.6km/h 7.0mph /  11.3km/h 42% 0.00in /  0mm
12:45 60.2 °F /  15.7 °C 38.2 °F /  3.4 °C 30.17in /  1021.6hPa SW 1.0mph /  1.6km/h 7.0mph /  11.3km/h 44% 0.00in /  0mm
12:55 60.0 °F /  15.6 °C 38.6 °F /  3.7 °C 30.16in /  1021.2hPa WSW 1.0mph /  1.6km/h 6.0mph /  9.7km/h 45% 0.00in /  0mm
13:00 59.7 °F /  15.4 °C 37.8 °F /  3.2 °C 30.17in /  1021.6hPa SW 1.0mph /  1.6km/h 6.0mph /  9.7km/h 44% 0.00in /  0mm
13:05 59.8 °F /  15.4 °C 38.4 °F /  3.6 °C 30.17in /  1021.6hPa Calm   5.0mph /  8km/h 45% 0.00in /  0mm
13:10 60.8 °F /  16 °C 38.2 °F /  3.4 °C 30.16in /  1021.2hPa SW 1.0mph /  1.6km/h 4.0mph /  6.4km/h 43% 0.00in /  0mm
13:15 62.1 °F /  16.7 °C 38.7 °F /  3.7 °C 30.16in /  1021.2hPa Calm   4.0mph /  6.4km/h 42% 0.00in /  0mm
13:20 62.5 °F /  16.9 °C 38.5 °F /  3.6 °C 30.16in /  1021.2hPa WSW 1.0mph /  1.6km/h 5.0mph /  8km/h 41% 0.00in /  0mm
13:25 62.4 °F /  16.9 °C 38.4 °F /  3.6 °C 30.16in /  1021.2hPa WNW 4.0mph /  6.4km/h 8.0mph /  12.9km/h 41% 0.00in /  0mm
13:30 62.3 °F /  16.8 °C 39.5 °F /  4.2 °C 30.16in /  1021.2hPa West 5.0mph /  8km/h 9.0mph /  14.5km/h 43% 0.00in /  0mm
13:40 63.1 °F /  17.3 °C 39.7 °F /  4.3 °C 30.16in /  1021.2hPa West 5.0mph /  8km/h 9.0mph /  14.5km/h 42% 0.00in /  0mm
13:45 63.0 °F /  17.2 °C 38.9 °F /  3.8 °C 30.16in /  1021.2hPa WNW 1.0mph /  1.6km/h 9.0mph /  14.5km/h 41% 0.00in /  0mm
13:50 63.0 °F /  17.2 °C 39.6 °F /  4.2 °C 30.16in /  1021.2hPa Calm   7.0mph /  11.3km/h 42% 0.00in /  0mm
13:55 63.1 °F /  17.3 °C 39.7 °F /  4.3 °C 30.16in /  1021.2hPa WSW 1.0mph /  1.6km/h 7.0mph /  11.3km/h 42% 0.00in /  0mm
14:00 62.3 °F /  16.8 °C 38.9 °F /  3.8 °C 30.16in /  1021.2hPa Calm   7.0mph /  11.3km/h 42% 0.00in /  0mm
14:05 61.4 °F /  16.3 °C 39.3 °F /  4.1 °C 30.16in /  1021.2hPa WSW 1.0mph /  1.6km/h 6.0mph /  9.7km/h 44% 0.00in /  0mm
14:10 60.9 °F /  16.1 °C 38.3 °F /  3.5 °C 30.16in /  1021.2hPa West 3.0mph /  4.8km/h 6.0mph /  9.7km/h 43% 0.00in /  0mm
14:15 60.6 °F /  15.9 °C 38.6 °F /  3.7 °C 30.16in /  1021.2hPa Calm   6.0mph /  9.7km/h 44% 0.00in /  0mm
14:20 60.3 °F /  15.7 °C 37.7 °F /  3.2 °C 30.16in /  1021.2hPa WNW 1.0mph /  1.6km/h 5.0mph /  8km/h 43% 0.00in /  0mm
14:25 59.8 °F /  15.4 °C 38.4 °F /  3.6 °C 30.17in /  1021.6hPa SW 1.0mph /  1.6km/h 5.0mph /  8km/h 45% 0.00in /  0mm
14:30 59.4 °F /  15.2 °C 38.6 °F /  3.7 °C 30.17in /  1021.6hPa WSW 2.0mph /  3.2km/h 5.0mph /  8km/h 46% 0.00in /  0mm
14:40 59.1 °F /  15.1 °C 40.0 °F /  4.4 °C 30.16in /  1021.2hPa Calm   5.0mph /  8km/h 49% 0.00in /  0mm
14:45 59.0 °F /  15 °C 39.3 °F /  4.1 °C 30.16in /  1021.2hPa WSW 1.0mph /  1.6km/h 4.0mph /  6.4km/h 48% 0.00in /  0mm
14:50 59.0 °F /  15 °C 39.3 °F /  4.1 °C 30.16in /  1021.2hPa WSW 1.0mph /  1.6km/h 6.0mph /  9.7km/h 48% 0.00in /  0mm
14:55 59.0 °F /  15 °C 40.9 °F /  4.9 °C 30.16in /  1021.2hPa WSW 1.0mph /  1.6km/h 6.0mph /  9.7km/h 51% 0.00in /  0mm
15:00 58.7 °F /  14.8 °C 41.1 °F /  5.1 °C 30.16in /  1021.2hPa WSW 1.0mph /  1.6km/h 5.0mph /  8km/h 52% 0.00in /  0mm
15:05 58.5 °F /  14.7 °C 41.4 °F /  5.2 °C 30.16in /  1021.2hPa SW 1.0mph /  1.6km/h 6.0mph /  9.7km/h 53% 0.00in /  0mm
15:10 58.3 °F /  14.6 °C 42.2 °F /  5.7 °C 30.16in /  1021.2hPa SW 1.0mph /  1.6km/h 6.0mph /  9.7km/h 55% 0.00in /  0mm
15:15 58.1 °F /  14.5 °C 42.5 °F /  5.8 °C 30.16in /  1021.2hPa SW 1.0mph /  1.6km/h 5.0mph /  8km/h 56% 0.00in /  0mm
15:20 57.9 °F /  14.4 °C 42.8 °F /  6 °C 30.16in /  1021.2hPa SW 2.0mph /  3.2km/h 5.0mph /  8km/h 57% 0.00in /  0mm
15:25 57.8 °F /  14.3 °C 43.1 °F /  6.2 °C 30.16in /  1021.2hPa SW 2.0mph /  3.2km/h 5.0mph /  8km/h 58% 0.00in /  0mm
15:30 57.7 °F /  14.3 °C 43.5 °F /  6.4 °C 30.15in /  1020.9hPa South 2.0mph /  3.2km/h 7.0mph /  11.3km/h 59% 0.00in /  0mm
15:35 57.6 °F /  14.2 °C 43.4 °F /  6.3 °C 30.16in /  1021.2hPa SSW 4.0mph /  6.4km/h 7.0mph /  11.3km/h 59% 0.00in /  0mm
15:40 57.4 °F /  14.1 °C 43.6 °F /  6.4 °C 30.16in /  1021.2hPa Calm   7.0mph /  11.3km/h 60% 0.00in /  0mm
15:45 57.3 °F /  14.1 °C 44.0 °F /  6.7 °C 30.16in /  1021.2hPa SW 1.0mph /  1.6km/h 6.0mph /  9.7km/h 61% 0.00in /  0mm
15:50 57.2 °F /  14 °C 43.9 °F /  6.6 °C 30.16in /  1021.2hPa Calm   6.0mph /  9.7km/h 61% 0.00in /  0mm
15:55 57.1 °F /  13.9 °C 43.8 °F /  6.6 °C 30.16in /  1021.2hPa Calm   1.0mph /  1.6km/h 61% 0.00in /  0mm
16:00 56.9 °F /  13.8 °C 43.6 °F /  6.4 °C 30.16in /  1021.2hPa Calm   1.0mph /  1.6km/h 61% 0.00in /  0mm
16:10 56.7 °F /  13.7 °C 43.8 °F /  6.6 °C 30.16in /  1021.2hPa Calm   1.0mph /  1.6km/h 62% 0.00in /  0mm
16:15 56.5 °F /  13.6 °C 44.1 °F /  6.7 °C 30.16in /  1021.2hPa Calm   1.0mph /  1.6km/h 63% 0.00in /  0mm
16:25 56.1 °F /  13.4 °C 44.1 °F /  6.7 °C 30.16in /  1021.2hPa Calm     64% 0.00in /  0mm
16:30 55.9 °F /  13.3 °C 43.9 °F /  6.6 °C 30.17in /  1021.6hPa Calm     64% 0.00in /  0mm
16:35 55.6 °F /  13.1 °C 44.4 °F /  6.9 °C 30.17in /  1021.6hPa Calm     66% 0.00in /  0mm
16:45 55.0 °F /  12.8 °C 44.3 °F /  6.8 °C 30.16in /  1021.2hPa Calm     67% 0.00in /  0mm
16:50 54.8 °F /  12.7 °C 44.1 °F /  6.7 °C 30.16in /  1021.2hPa Calm   1.0mph /  1.6km/h 67% 0.00in /  0mm
16:55 54.7 °F /  12.6 °C 44.0 °F /  6.7 °C 30.17in /  1021.6hPa Calm   1.0mph /  1.6km/h 67% 0.00in /  0mm
17:00 54.6 °F /  12.6 °C 44.3 °F /  6.8 °C 30.17in /  1021.6hPa Calm     68% 0.00in /  0mm
17:05 54.5 °F /  12.5 °C 44.5 °F /  6.9 °C 30.16in /  1021.2hPa Calm     69% 0.00in /  0mm
17:10 54.3 °F /  12.4 °C 44.7 °F /  7.1 °C 30.16in /  1021.2hPa Calm   2.0mph /  3.2km/h 70% 0.00in /  0mm
17:15 54.1 °F /  12.3 °C 44.2 °F /  6.8 °C 30.16in /  1021.2hPa Calm   2.0mph /  3.2km/h 69% 0.00in /  0mm
17:20 54.0 °F /  12.2 °C 44.4 °F /  6.9 °C 30.17in /  1021.6hPa Calm     70% 0.00in /  0mm
17:25 53.9 °F /  12.2 °C 44.3 °F /  6.8 °C 30.17in /  1021.6hPa Calm     70% 0.00in /  0mm
17:30 53.8 °F /  12.1 °C 45.0 °F /  7.2 °C 30.17in /  1021.6hPa Calm     72% 0.00in /  0mm
17:35 53.7 °F /  12.1 °C 45.3 °F /  7.4 °C 30.17in /  1021.6hPa Calm     73% 0.00in /  0mm
17:40 53.5 °F /  11.9 °C 45.1 °F /  7.3 °C 30.17in /  1021.6hPa Calm     73% 0.00in /  0mm
17:45 53.4 °F /  11.9 °C 44.2 °F /  6.8 °C 30.17in /  1021.6hPa Calm     71% 0.00in /  0mm
17:50 53.4 °F /  11.9 °C 44.2 °F /  6.8 °C 30.17in /  1021.6hPa Calm     71% 0.00in /  0mm
17:55 53.3 °F /  11.8 °C 44.1 °F /  6.7 °C 30.17in /  1021.6hPa Calm     71% 0.00in /  0mm
18:00 53.2 °F /  11.8 °C 44.0 °F /  6.7 °C 30.17in /  1021.6hPa Calm     71% 0.00in /  0mm
18:05 53.2 °F /  11.8 °C 44.4 °F /  6.9 °C 30.17in /  1021.6hPa Calm     72% 0.00in /  0mm
18:10 53.2 °F /  11.8 °C 44.0 °F /  6.7 °C 30.17in /  1021.6hPa Calm     71% 0.00in /  0mm
18:15 53.3 °F /  11.8 °C 44.5 °F /  6.9 °C 30.17in /  1021.6hPa Calm     72% 0.00in /  0mm
18:20 53.3 °F /  11.8 °C 44.1 °F /  6.7 °C 30.17in /  1021.6hPa Calm   1.0mph /  1.6km/h 71% 0.00in /  0mm
18:25 53.3 °F /  11.8 °C 44.1 °F /  6.7 °C 30.17in /  1021.6hPa SSW 2.0mph /  3.2km/h 4.0mph /  6.4km/h 71% 0.00in /  0mm
18:30 53.6 °F /  12 °C 44.4 °F /  6.9 °C 30.17in /  1021.6hPa Calm   4.0mph /  6.4km/h 71% 0.00in /  0mm
18:35 53.8 °F /  12.1 °C 44.6 °F /  7 °C 30.17in /  1021.6hPa Calm   4.0mph /  6.4km/h 71% 0.00in /  0mm
18:40 54.0 °F /  12.2 °C 44.4 °F /  6.9 °C 30.17in /  1021.6hPa Calm   1.0mph /  1.6km/h 70% 0.00in /  0mm
18:45 54.0 °F /  12.2 °C 44.4 °F /  6.9 °C 30.17in /  1021.6hPa Calm     70% 0.00in /  0mm
18:50 54.0 °F /  12.2 °C 44.4 °F /  6.9 °C 30.17in /  1021.6hPa Calm     70% 0.00in /  0mm
18:55 53.9 °F /  12.2 °C 44.3 °F /  6.8 °C 30.17in /  1021.6hPa Calm   1.0mph /  1.6km/h 70% 0.00in /  0mm
19:00 53.7 °F /  12.1 °C 44.5 °F /  6.9 °C 30.17in /  1021.6hPa Calm   1.0mph /  1.6km/h 71% 0.00in /  0mm
19:05 53.3 °F /  11.8 °C 44.1 °F /  6.7 °C 30.16in /  1021.2hPa Calm   2.0mph /  3.2km/h 71% 0.00in /  0mm
19:10 53.2 °F /  11.8 °C 44.4 °F /  6.9 °C 30.16in /  1021.2hPa SSE 1.0mph /  1.6km/h 4.0mph /  6.4km/h 72% 0.00in /  0mm
19:15 53.5 °F /  11.9 °C 45.1 °F /  7.3 °C 30.16in /  1021.2hPa SSE 2.0mph /  3.2km/h 4.0mph /  6.4km/h 73% 0.00in /  0mm
19:20 53.9 °F /  12.2 °C 45.1 °F /  7.3 °C 30.16in /  1021.2hPa Calm   4.0mph /  6.4km/h 72% 0.00in /  0mm
19:30 54.5 °F /  12.5 °C 45.3 °F /  7.4 °C 30.16in /  1021.2hPa Calm   2.0mph /  3.2km/h 71% 0.00in /  0mm
19:35 54.5 °F /  12.5 °C 45.3 °F /  7.4 °C 30.16in /  1021.2hPa Calm   1.0mph /  1.6km/h 71% 0.00in /  0mm
19:40 54.3 °F /  12.4 °C 45.1 °F /  7.3 °C 30.16in /  1021.2hPa Calm     71% 0.00in /  0mm
19:45 54.1 °F /  12.3 °C 45.6 °F /  7.6 °C 30.16in /  1021.2hPa Calm     73% 0.00in /  0mm
19:50 53.8 °F /  12.1 °C 45.0 °F /  7.2 °C 30.16in /  1021.2hPa Calm     72% 0.00in /  0mm
19:55 53.7 °F /  12.1 °C 44.9 °F /  7.2 °C 30.16in /  1021.2hPa Calm     72% 0.00in /  0mm
20:00 53.5 °F /  11.9 °C 44.7 °F /  7.1 °C 30.17in /  1021.6hPa Calm     72% 0.00in /  0mm
20:05 53.3 °F /  11.8 °C 44.9 °F /  7.2 °C 30.17in /  1021.6hPa Calm     73% 0.00in /  0mm
20:10 53.2 °F /  11.8 °C 45.1 °F /  7.3 °C 30.16in /  1021.2hPa Calm     74% 0.00in /  0mm
20:15 53.0 °F /  11.7 °C 44.9 °F /  7.2 °C 30.16in /  1021.2hPa Calm     74% 0.00in /  0mm
20:20 52.9 °F /  11.6 °C 44.8 °F /  7.1 °C 30.17in /  1021.6hPa Calm     74% 0.00in /  0mm
20:25 52.9 °F /  11.6 °C 44.8 °F /  7.1 °C 30.17in /  1021.6hPa Calm     74% 0.00in /  0mm
20:30 53.0 °F /  11.7 °C 44.9 °F /  7.2 °C 30.16in /  1021.2hPa Calm     74% 0.00in /  0mm
20:35 53.0 °F /  11.7 °C 45.3 °F /  7.4 °C 30.16in /  1021.2hPa Calm     75% 0.00in /  0mm
20:40 53.1 °F /  11.7 °C 45.4 °F /  7.4 °C 30.16in /  1021.2hPa Calm     75% 0.00in /  0mm
20:45 53.1 °F /  11.7 °C 45.4 °F /  7.4 °C 30.16in /  1021.2hPa Calm     75% 0.00in /  0mm
20:50 53.1 °F /  11.7 °C 45.4 °F /  7.4 °C 30.16in /  1021.2hPa Calm     75% 0.00in /  0mm
20:55 53.0 °F /  11.7 °C 45.3 °F /  7.4 °C 30.16in /  1021.2hPa Calm     75% 0.00in /  0mm
21:00 53.0 °F /  11.7 °C 45.3 °F /  7.4 °C 30.16in /  1021.2hPa Calm     75% 0.00in /  0mm
21:05 52.8 °F /  11.6 °C 45.1 °F /  7.3 °C 30.16in /  1021.2hPa Calm     75% 0.00in /  0mm
21:10 52.7 °F /  11.5 °C 45.0 °F /  7.2 °C 30.16in /  1021.2hPa Calm     75% 0.00in /  0mm
21:15 52.5 °F /  11.4 °C 44.8 °F /  7.1 °C 30.16in /  1021.2hPa Calm     75% 0.00in /  0mm
21:20 52.4 °F /  11.3 °C 45.1 °F /  7.3 °C 30.16in /  1021.2hPa Calm     76% 0.00in /  0mm
21:25 52.3 °F /  11.3 °C 44.6 °F /  7 °C 30.15in /  1020.9hPa Calm     75% 0.00in /  0mm
21:30 52.3 °F /  11.3 °C 44.6 °F /  7 °C 30.15in /  1020.9hPa Calm     75% 0.00in /  0mm
21:35 52.2 °F /  11.2 °C 44.9 °F /  7.2 °C 30.15in /  1020.9hPa Calm     76% 0.00in /  0mm
21:40 52.1 °F /  11.2 °C 44.8 °F /  7.1 °C 30.15in /  1020.9hPa Calm     76% 0.00in /  0mm
21:45 52.1 °F /  11.2 °C 44.8 °F /  7.1 °C 30.15in /  1020.9hPa Calm     76% 0.00in /  0mm
21:50 52.0 °F /  11.1 °C 44.7 °F /  7.1 °C 30.15in /  1020.9hPa Calm     76% 0.00in /  0mm
21:55 51.9 °F /  11.1 °C 44.9 °F /  7.2 °C 30.15in /  1020.9hPa Calm     77% 0.00in /  0mm
22:00 51.9 °F /  11.1 °C 44.6 °F /  7 °C 30.15in /  1020.9hPa Calm     76% 0.00in /  0mm
22:05 51.9 °F /  11.1 °C 44.9 °F /  7.2 °C 30.15in /  1020.9hPa Calm     77% 0.00in /  0mm
22:10 51.8 °F /  11 °C 44.8 °F /  7.1 °C 30.14in /  1020.5hPa Calm     77% 0.00in /  0mm
22:15 51.8 °F /  11 °C 44.8 °F /  7.1 °C 30.14in /  1020.5hPa Calm     77% 0.00in /  0mm
22:20 51.8 °F /  11 °C 44.8 °F /  7.1 °C 30.14in /  1020.5hPa Calm     77% 0.00in /  0mm
22:25 51.7 °F /  10.9 °C 45.1 °F /  7.3 °C 30.14in /  1020.5hPa Calm     78% 0.00in /  0mm
22:30 51.7 °F /  10.9 °C 45.1 °F /  7.3 °C 30.14in /  1020.5hPa Calm     78% 0.00in /  0mm
22:35 51.5 °F /  10.8 °C 44.5 °F /  6.9 °C 30.14in /  1020.5hPa Calm     77% 0.00in /  0mm
22:40 51.3 °F /  10.7 °C 44.3 °F /  6.8 °C 30.14in /  1020.5hPa Calm     77% 0.00in /  0mm
22:45 51.1 °F /  10.6 °C 44.5 °F /  6.9 °C 30.14in /  1020.5hPa Calm     78% 0.00in /  0mm
22:50 50.9 °F /  10.5 °C 44.3 °F /  6.8 °C 30.14in /  1020.5hPa Calm     78% 0.00in /  0mm
22:55 50.7 °F /  10.4 °C 44.1 °F /  6.7 °C 30.14in /  1020.5hPa Calm     78% 0.00in /  0mm
23:00 50.5 °F /  10.3 °C 43.9 °F /  6.6 °C 30.15in /  1020.9hPa Calm     78% 0.00in /  0mm
23:05 50.3 °F /  10.2 °C 43.7 °F /  6.5 °C 30.15in /  1020.9hPa Calm     78% 0.00in /  0mm
23:10 50.1 °F /  10.1 °C 43.8 °F /  6.6 °C 30.15in /  1020.9hPa Calm     79% 0.00in /  0mm
23:15 50.0 °F /  10 °C 44.1 °F /  6.7 °C 30.14in /  1020.5hPa Calm     80% 0.00in /  0mm
23:20 50.1 °F /  10.1 °C 44.2 °F /  6.8 °C 30.14in /  1020.5hPa Calm     80% 0.00in /  0mm
23:25 50.0 °F /  10 °C 44.1 °F /  6.7 °C 30.14in /  1020.5hPa Calm     80% 0.00in /  0mm
23:30 50.0 °F /  10 °C 44.1 °F /  6.7 °C 30.14in /  1020.5hPa Calm   2.0mph /  3.2km/h 80% 0.00in /  0mm
23:35 50.1 °F /  10.1 °C 44.5 °F /  6.9 °C 30.14in /  1020.5hPa Calm   2.0mph /  3.2km/h 81% 0.00in /  0mm
23:40 50.1 °F /  10.1 °C 44.8 °F /  7.1 °C 30.14in /  1020.5hPa Calm   1.0mph /  1.6km/h 82% 0.00in /  0mm
23:45 50.2 °F /  10.1 °C 44.9 °F /  7.2 °C 30.14in /  1020.5hPa Calm   1.0mph /  1.6km/h 82% 0.00in /  0mm
23:50 50.1 °F /  10.1 °C 44.8 °F /  7.1 °C 30.14in /  1020.5hPa Calm     82% 0.00in /  0mm
23:55 49.9 °F /  9.9 °C 44.6 °F /  7 °C 30.14in /  1020.5hPa Calm     82% 0.00in /  0mm
Westford Weather
Compliments of Weather Underground

 
 
Current Radar Loop:

Copyright © WestfordWeather.net 2007-2014. All rights reserved.